createdAt,value
2023-01-23T00:01:40.121Z,0.3
2023-01-23T00:06:40.235Z,0.2
2023-01-23T00:11:40.307Z,0.2
2023-01-23T00:16:41.548Z,0.1
2023-01-23T00:21:40.148Z,0.3
2023-01-23T00:26:40.278Z,0.2
2023-01-23T00:31:41.524Z,0.3
2023-01-23T00:36:44.417Z,0.2
2023-01-23T00:41:40.162Z,0.2
2023-01-23T00:46:40.218Z,0.2
2023-01-23T00:51:40.451Z,0.2
2023-01-23T00:56:40.123Z,0.2
2023-01-23T01:01:41.375Z,0.2
2023-01-23T01:06:40.182Z,0.2
2023-01-23T01:11:40.090Z,0.1
2023-01-23T01:19:29.594Z,0.2
2023-01-23T01:21:40.635Z,0.2
2023-01-23T01:26:40.651Z,0.2
2023-01-23T01:31:41.641Z,0.2
2023-01-23T01:36:40.116Z,0.2
2023-01-23T01:42:01.182Z,0.2
2023-01-23T01:46:54.814Z,0.2
2023-01-23T01:51:40.075Z,0.2
2023-01-23T01:56:40.169Z,0.2
2023-01-23T02:01:40.100Z,0.2
2023-01-23T02:06:40.076Z,0.2
2023-01-23T02:11:50.860Z,0.3
2023-01-23T02:16:51.058Z,0.2
2023-01-23T02:21:40.187Z,0.2
2023-01-23T02:26:40.088Z,0.2
2023-01-23T02:31:40.705Z,0.2
2023-01-23T02:36:40.071Z,0.2
2023-01-23T02:41:40.098Z,0.2
2023-01-23T02:46:40.599Z,0.2
2023-01-23T02:51:40.077Z,0.2
2023-01-23T02:56:40.082Z,0.2
2023-01-23T03:01:40.395Z,0.2
2023-01-23T03:06:40.077Z,0.2
2023-01-23T03:11:40.087Z,0.2
2023-01-23T03:16:56.525Z,0.2
2023-01-23T03:21:40.277Z,0.3
2023-01-23T03:26:40.273Z,0.2
2023-01-23T03:32:02.797Z,0.2
2023-01-23T03:36:40.375Z,0.2
2023-01-23T03:41:40.096Z,0.2
2023-01-23T03:46:40.143Z,0.2
2023-01-23T03:51:50.401Z,0.1
2023-01-23T03:56:40.110Z,0.2
2023-01-23T04:01:40.190Z,0.2
2023-01-23T04:06:40.274Z,0.2
2023-01-23T04:11:40.112Z,0.2
2023-01-23T04:16:41.026Z,0.2
2023-01-23T04:21:40.190Z,0.2
2023-01-23T04:26:40.443Z,0.2
2023-01-23T04:31:40.289Z,0.2
2023-01-23T04:36:40.113Z,0.2
2023-01-23T04:41:41.575Z,0.2
2023-01-23T04:46:40.137Z,0.2
2023-01-23T04:51:40.125Z,0.2
2023-01-23T04:56:40.134Z,0.2
2023-01-23T05:01:40.157Z,0.2
2023-01-23T05:06:40.158Z,0.2
2023-01-23T05:11:40.155Z,0.1
2023-01-23T05:16:41.723Z,0.1
2023-01-23T05:21:40.144Z,0.2
2023-01-23T05:26:40.185Z,0.2
2023-01-23T05:31:40.272Z,0.2
2023-01-23T05:36:40.148Z,0.2
2023-01-23T05:41:40.168Z,0.2
2023-01-23T05:46:41.461Z,0.2
2023-01-23T05:51:40.123Z,0.2
2023-01-23T05:56:40.264Z,0.1
2023-01-23T06:01:40.217Z,0.1
2023-01-23T06:06:40.118Z,0.2
2023-01-23T06:11:50.717Z,0.2
2023-01-23T06:16:41.616Z,0.2
2023-01-23T06:21:40.514Z,0.2
2023-01-23T06:27:03.044Z,0.2
2023-01-23T06:31:40.406Z,0.2
2023-01-23T06:36:40.222Z,0.2
2023-01-23T06:41:41.749Z,0.2
2023-01-23T06:46:40.277Z,0.2
2023-01-23T06:51:40.354Z,0.3
2023-01-23T06:56:40.236Z,0.3
2023-01-23T07:01:40.332Z,0.2
2023-01-23T07:06:40.294Z,0.2
2023-01-23T07:11:40.249Z,0.2
2023-01-23T07:16:43.014Z,0.3
2023-01-23T07:21:40.417Z,0.3
2023-01-23T07:26:40.495Z,0.2
2023-01-23T07:31:40.288Z,0.3
2023-01-23T07:36:40.300Z,0.3
2023-01-23T07:41:44.817Z,0.3
2023-01-23T07:46:40.308Z,0.3
2023-01-23T07:51:40.225Z,0.4
2023-01-23T07:56:40.314Z,0.4
2023-01-23T08:01:40.300Z,0.5
2023-01-23T08:06:40.269Z,0.5
2023-01-23T08:11:40.478Z,0.6
2023-01-23T08:21:41.845Z,0.8
2023-01-23T08:26:40.169Z,0.9
2023-01-23T08:31:40.238Z,0.8
2023-01-23T08:36:40.213Z,0.9
2023-01-23T08:41:40.351Z,0.9
2023-01-23T08:46:40.332Z,0.8
2023-01-23T08:51:40.217Z,0.1
2023-01-23T08:56:40.173Z,0.9
2023-01-23T09:01:40.160Z,0.9
2023-01-23T09:06:40.199Z,0.1
2023-01-23T09:11:40.167Z,0.1
2023-01-23T09:16:42.605Z,0.13
2023-01-23T09:21:40.178Z,0.13
2023-01-23T09:26:40.393Z,0.13
2023-01-23T09:31:40.205Z,0.19
2023-01-23T09:36:44.476Z,0.2
2023-01-23T09:41:48.429Z,0.2
2023-01-23T09:46:40.199Z,0.19
2023-01-23T09:51:46.775Z,0.3
2023-01-23T09:56:42.870Z,0.18
2023-01-23T10:01:42.876Z,0.19
2023-01-23T10:06:43.000Z,0.27
2023-01-23T10:11:42.886Z,0.26
2023-01-23T10:16:50.652Z,0.36
2023-01-23T10:21:43.470Z,0.45
2023-01-23T10:26:43.062Z,0.68
2023-01-23T10:31:43.017Z,0.47
2023-01-23T10:36:54.189Z,0.82
2023-01-23T10:41:48.560Z,0.6
2023-01-23T10:46:42.987Z,0.45
2023-01-23T10:51:42.974Z,0.62
2023-01-23T10:56:42.959Z,0.54
2023-01-23T11:01:53.129Z,0.43
2023-01-23T11:06:42.953Z,0.42
2023-01-23T11:11:44.594Z,0.44
2023-01-23T11:16:43.272Z,0.37
2023-01-23T11:21:43.081Z,0.36
2023-01-23T11:26:43.037Z,0.33
2023-01-23T11:31:42.999Z,0.36
2023-01-23T11:36:43.371Z,0.35
2023-01-23T11:41:43.265Z,0.43
2023-01-23T11:46:42.967Z,0.35
2023-01-23T11:51:43.059Z,0.26
2023-01-23T11:56:42.952Z,0.41
2023-01-23T12:01:52.089Z,0.28
2023-01-23T12:06:42.938Z,0.49
2023-01-23T12:11:44.579Z,0.35
2023-01-23T12:16:43.439Z,0.41
2023-01-23T12:21:42.954Z,0.48
2023-01-23T12:26:43.090Z,0.28
2023-01-23T12:31:43.071Z,0.3
2023-01-23T12:37:05.637Z,0.24
2023-01-23T12:41:42.924Z,0.28
2023-01-23T12:46:43.217Z,0.22
2023-01-23T12:51:43.044Z,0.27
2023-01-23T12:56:42.939Z,0.35
2023-01-23T13:01:42.959Z,0.26
2023-01-23T13:06:43.077Z,0.3
2023-01-23T13:11:43.047Z,0.4
2023-01-23T13:16:43.140Z,0.24
2023-01-23T13:31:42.956Z,0.21
2023-01-23T13:36:42.917Z,0.24
2023-01-23T13:41:43.220Z,0.22
2023-01-23T14:21:42.952Z,0.12
2023-01-23T14:26:42.906Z,0.12
2023-01-23T14:31:45.505Z,0.12
2023-01-23T14:36:42.927Z,0.8
2023-01-23T14:42:13.953Z,0.9
2023-01-23T14:46:42.942Z,0.1
2023-01-23T14:51:47.668Z,0.12
2023-01-23T14:56:47.352Z,0.8
2023-01-23T15:07:06.829Z,0.6
2023-01-23T15:11:42.992Z,0.5
2023-01-23T15:16:43.308Z,0.6
2023-01-23T15:21:42.989Z,0.5
2023-01-23T15:26:44.395Z,0.5
2023-01-23T15:31:43.012Z,0.3
2023-01-23T15:36:42.971Z,0.3
2023-01-23T15:41:42.941Z,0.3
2023-01-23T15:52:31.545Z,0.2
2023-01-23T15:57:31.598Z,0.2
2023-01-23T16:02:59.176Z,0.2
2023-01-23T16:08:17.228Z,0.1
2023-01-23T16:13:17.172Z,0.2
2023-01-23T16:18:17.186Z,0.2
2023-01-23T16:29:20.210Z,0.2
2023-01-23T16:33:17.277Z,0.2
2023-01-23T16:38:17.267Z,0.2
2023-01-23T16:43:17.272Z,0.2
2023-01-23T16:48:27.055Z,0.2
2023-01-23T16:53:17.215Z,0.2
2023-01-23T16:58:17.221Z,0.2
2023-01-23T17:03:18.232Z,0.2
2023-01-23T17:08:17.182Z,0.2
2023-01-23T17:13:17.284Z,0.2
2023-01-23T17:18:17.292Z,0.2
2023-01-23T17:23:17.322Z,0.2
2023-01-23T17:28:17.278Z,0.2
2023-01-23T17:33:17.739Z,0.1
2023-01-23T17:38:17.234Z,0.2
2023-01-23T17:43:17.291Z,0.2
2023-01-23T17:48:17.508Z,0.1
2023-01-23T17:53:17.220Z,0.2
2023-01-23T17:58:17.292Z,0.3
2023-01-23T18:03:17.305Z,0.2
2023-01-23T18:08:17.264Z,0.2
2023-01-23T18:13:17.316Z,0.2
2023-01-23T18:18:17.292Z,0.2
2023-01-23T18:23:17.211Z,0.1
2023-01-23T18:28:17.417Z,0.2
2023-01-23T18:33:17.251Z,0.2
2023-01-23T18:38:17.239Z,0.2
2023-01-23T18:43:17.256Z,0.2
2023-01-23T18:48:25.254Z,0.2
2023-01-23T18:53:18.270Z,0.2
2023-01-23T18:58:17.230Z,0.2
2023-01-23T19:03:19.214Z,0.2
2023-01-23T19:08:19.222Z,0.3
2023-01-23T19:13:19.320Z,0.2
2023-01-23T19:18:31.584Z,0.2
2023-01-23T19:23:19.273Z,0.2
2023-01-23T19:28:19.342Z,0.2
2023-01-23T19:33:19.277Z,0.2
2023-01-23T19:38:19.363Z,0.1
2023-01-23T19:43:19.235Z,0.2
2023-01-23T19:48:19.290Z,0.2
2023-01-23T19:53:19.357Z,0.2
2023-01-23T19:58:19.238Z,0.2
2023-01-23T20:03:19.218Z,0.2
2023-01-23T20:08:19.272Z,0.2
2023-01-23T20:13:19.221Z,0.2
2023-01-23T20:18:19.286Z,0.2
2023-01-23T20:23:19.228Z,0.2
2023-01-23T20:28:19.555Z,0.1
2023-01-23T20:33:19.227Z,0.2
2023-01-23T20:38:19.383Z,0.2
2023-01-23T20:43:19.253Z,0.2
2023-01-23T20:48:19.278Z,0.2
2023-01-23T20:53:19.270Z,0.2
2023-01-23T20:58:19.299Z,0.2
2023-01-23T21:03:19.354Z,0.2
2023-01-23T21:08:19.291Z,0.2
2023-01-23T21:13:19.250Z,0.3
2023-01-23T21:18:19.402Z,0.1
2023-01-23T21:23:19.343Z,0.1
2023-01-23T21:28:20.685Z,0.2
2023-01-23T21:33:19.289Z,0.3
2023-01-23T21:38:19.267Z,0.2
2023-01-23T21:43:19.439Z,0.2
2023-01-23T21:48:19.272Z,0.2
2023-01-23T21:53:19.403Z,0.2
2023-01-23T21:58:19.247Z,0.2
2023-01-23T22:03:19.386Z,0.2
2023-01-23T22:08:19.295Z,0.2
2023-01-23T22:13:19.337Z,0.2
2023-01-23T22:18:19.316Z,0.2
2023-01-23T22:23:19.321Z,0.3
2023-01-23T22:28:19.451Z,0.2
2023-01-23T22:33:19.335Z,0.2
2023-01-23T22:38:19.324Z,0.2
2023-01-23T22:43:19.301Z,0.2
2023-01-23T22:48:19.266Z,0.1
2023-01-23T22:53:19.355Z,0.1
2023-01-23T22:58:19.304Z,0.2
2023-01-23T23:03:19.381Z,0.2
2023-01-23T23:08:19.447Z,0.2
2023-01-23T23:13:19.352Z,0.3
2023-01-23T23:18:26.211Z,0.2
2023-01-23T23:23:19.310Z,0.2
2023-01-23T23:28:19.459Z,0.2
2023-01-23T23:33:19.350Z,0.2
2023-01-23T23:38:19.278Z,0.2
2023-01-23T23:43:19.334Z,0.2
2023-01-23T23:48:19.293Z,0.2
2023-01-23T23:53:19.314Z,0.2
2023-01-23T23:58:19.258Z,0.2
